Hauptseite
METAR-TAF:

METAR-TAF

Flughäfen :

Flughafen Berlin-Schönefeld

Berlin-Schönefeld, Deutschland

Breite: 52-23N, Länge: 013-31E, Höhe: 47 m

Beobachtung

Neuester Wetterbericht von vor 33 Minuten, um 11:20 UTC
Wind 9 kt aus West
Temperatur 10°C
Luftfeuchtigkeit 82%
Luftdruck 1030 hPa
Sichtweite 10 km oder mehr
Aufgelockert bewölkt in der Höhe von 1100 ft

METAR: EDDB 141120Z 26009KT 9999 SCT011 10/07 Q1030 TEMPO BKN010

Zeit: 12:53 (11:53 UTC)

Prognose

Neuester Wetterbericht von vor 53 Minuten, um 11:00 UTC
Gültige Prognose vom 14 um 12 UTC bis 15 um 12 UTC
Wind 7 kt aus West
Sichtweite 10 km oder mehr
Aufgelockert bewölkt in der Höhe von 1500 ft
Übergehend zu
vom 14 um 14 UTC bis 14 um 17 UTC
Wind 3 kt aus Süd
Übergehend zu
vom 15 um 05 UTC bis 15 um 08 UTC
Wind 5 kt aus Ost/Südost

TAF: EDDB 141100Z 1412/1512 26007KT 9999 SCT015 BECMG 1414/1417 18003KT BECMG 1505/1508 12005KT

Wetterbeobachtungen und Prognosen von mehr als 4000 Flughäfen (METAR und TAF Bericht).

Die verfügbaren Stationen werden durch gelbe und rote Markierungen auf der Karte dargestellt.

Führen Sie die Maus auf sie, um den Namen der Station zu sehen.

Darauf klicken, um die Beobachtung von Wetterbeobachtungen und Prognosen zu sehen.

Um die Karte zu ändern : klicken Sie auf den grünen Tasten mit einem schwarzen Kreuz Zum Vergrößern, auf den grünen Button mit einem Gedankenstrich zu verkleinern, oder auf die grünen Pfeile für benachbarte Karten.


METAR-TAF: